Time;durP1;ratioP1;P1;durP2;ratioP2;P2;SDS_P1;SDS_P2;PMS_P1;PMS_P2;Temp;Humidity;BMP_temperature;BMP_pressure;BME280_temperature;BME280_humidity;BME280_pressure;Samples;Min_cycle;Max_cycle;Signal;HPM_P1;HPM_P2
2023/06/12 00:00:53;;;;;;;;;;;;;;;22.92;40.90;101051.53;7315533;19;19947;-59
2023/06/12 00:03:19;;;;;;;;;;;;;;;22.86;40.77;101043.91;7315696;19;19930;-58
2023/06/12 00:05:45;;;;;;;;;;;;;;;22.80;40.94;101043.38;7316171;19;20598;-59
2023/06/12 00:08:11;;;;;;;;;;;;;;;22.75;41.25;101044.66;7318131;19;19922;-59
2023/06/12 00:10:37;;;;;;;;;;;;;;;22.70;41.18;101038.78;7315814;19;19918;-58
2023/06/12 00:13:02;;;;;;;;;;;;;;;22.64;40.94;101039.22;7316108;19;20912;-59
2023/06/12 00:15:28;;;;;;;;;;;;;;;22.59;41.29;101042.19;7316124;19;19931;-59
2023/06/12 00:17:53;;;;;;;;;;;;;;;22.53;41.18;101046.13;7316838;19;20351;-59
2023/06/12 00:20:18;;;;;;;;;;;;;;;22.49;41.65;101049.09;7318429;19;19945;-59
2023/06/12 00:22:44;;;;;;;;;;;;;;;22.45;41.74;101042.25;7325526;19;19986;-59
2023/06/12 00:25:09;;;;;;;;;;;;;;;22.41;41.29;101030.97;7315617;19;19919;-59
2023/06/12 00:27:35;;;;;;;;;;;;;;;22.36;41.66;101033.09;7321819;19;19926;-59
2023/06/12 00:30:01;;;;;;;;;;;;;;;22.32;41.34;101028.06;7324275;19;19915;-59
2023/06/12 00:32:26;;;;;;;;;;;;;;;22.27;41.90;101029.22;7320972;19;19923;-60
2023/06/12 00:34:51;;;;;;;;;;;;;;;;;;7321196;19;19986;-59
2023/06/12 00:37:17;;;;;;;;;;;;;;;22.18;41.60;101031.66;7325210;19;19919;-59
2023/06/12 00:39:43;;;;;;;;;;;;;;;22.14;41.78;101038.97;7323485;19;19930;-58
2023/06/12 00:42:08;;;;;;;;;;;;;;;22.09;41.98;101029.56;7318415;19;20603;-59
2023/06/12 00:44:34;;;;;;;;;;;;;;;22.05;42.13;101036.03;7322253;19;19918;-59
2023/06/12 00:46:59;;;;;;;;;;;;;;;22.01;42.20;101032.72;7321616;19;19915;-58
2023/06/12 00:49:24;;;;;;;;;;;;;;;21.97;42.29;101034.72;7322022;19;19952;-58
2023/06/12 00:51:50;;;;;;;;;;;;;;;21.94;41.96;101026.94;7321351;19;20951;-59
2023/06/12 00:54:15;;;;;;;;;;;;;;;21.91;42.40;101024.50;7319542;19;19922;-59
2023/06/12 00:56:40;;;;;;;;;;;;;;;21.88;42.28;101021.16;7316005;19;20683;-59
2023/06/12 00:59:06;;;;;;;;;;;;;;;21.85;42.51;101022.25;7322391;19;19911;-58
2023/06/12 01:01:32;;;;;;;;;;;;;;;21.82;42.54;101011.78;7321432;19;19922;-59
2023/06/12 01:03:57;;;;;;;;;;;;;;;21.81;42.54;101018.06;7318778;19;19961;-59
2023/06/12 01:06:29;;;;;;;;;;;;;;;21.80;42.78;101029.66;7316963;19;19925;-59
2023/06/12 01:09:07;;;;;;;;;;;;;;;21.76;43.07;101026.34;7321936;19;20035;-58
2023/06/12 01:11:34;;;;;;;;;;;;;;;21.76;42.78;101029.00;7324955;19;19919;-59
2023/06/12 01:13:59;;;;;;;;;;;;;;;21.76;42.87;101028.13;7319646;19;20006;-58
2023/06/12 01:16:24;;;;;;;;;;;;;;;21.75;43.21;101021.13;7324801;19;19935;-59
2023/06/12 01:18:50;;;;;;;;;;;;;;;21.75;43.29;101021.13;7320763;19;21301;-59
2023/06/12 01:21:17;;;;;;;;;;;;;;;21.74;43.29;101019.41;7322573;19;19919;-59
2023/06/12 01:23:51;;;;;;;;;;;;;;;21.74;43.37;101022.06;7317357;19;19957;-58
2023/06/12 01:26:39;;;;;;;;;;;;;;;21.73;43.42;101023.84;7318465;19;19918;-58
2023/06/12 01:29:07;;;;;;;;;;;;;;;21.73;43.37;101015.03;7323126;19;19922;-58
2023/06/12 01:31:43;;;;;;;;;;;;;;;21.73;43.29;101018.53;7321143;19;20006;-59
2023/06/12 01:34:08;;;;;;;;;;;;;;;21.74;43.63;101022.06;7317938;19;21056;-59
2023/06/12 01:36:36;;;;;;;;;;;;;;;21.74;43.61;101025.56;7323859;19;20086;-59
2023/06/12 01:39:04;;;;;;;;;;;;;;;21.74;43.59;101022.06;7319944;19;20591;-59
2023/06/12 01:41:29;;;;;;;;;;;;;;;21.75;43.67;101026.44;7317771;19;19927;-58
2023/06/12 01:43:55;;;;;;;;;;;;;;;21.74;43.68;101017.59;7319687;19;19915;-59
2023/06/12 01:46:20;;;;;;;;;;;;;;;21.75;43.36;101019.31;7321690;19;20776;-59
2023/06/12 01:48:45;;;;;;;;;;;;;;;21.75;43.45;101019.31;7314662;19;19914;-58
2023/06/12 01:51:10;;;;;;;;;;;;;;;21.74;43.62;101008.75;7317716;19;20389;-59
2023/06/12 01:53:36;;;;;;;;;;;;;;;21.73;43.67;101001.75;7317658;19;20309;-58
2023/06/12 01:56:01;;;;;;;;;;;;;;;21.74;44.16;101012.28;7320046;19;19926;-59
2023/06/12 01:58:27;;;;;;;;;;;;;;;21.75;43.80;101010.50;7316520;19;20014;-59
2023/06/12 02:00:53;;;;;;;;;;;;;;;21.76;43.85;101006.88;7320559;19;19939;-58
2023/06/12 02:03:20;;;;;;;;;;;;;;;21.76;44.29;101007.72;7318586;19;19955;-59
2023/06/12 02:05:45;;;;;;;;;;;;;;;21.77;44.41;101011.22;7320814;19;19935;-59
2023/06/12 02:08:10;;;;;;;;;;;;;;;21.77;44.18;101016.56;7321496;19;19926;-59
2023/06/12 02:10:36;;;;;;;;;;;;;;;21.77;44.38;100997.94;7320352;19;19918;-59
2023/06/12 02:13:01;;;;;;;;;;;;;;;21.78;44.55;100994.31;7315981;19;19918;-59
2023/06/12 02:15:28;;;;;;;;;;;;;;;21.78;44.13;101004.97;7313724;19;19915;-59
2023/06/12 02:17:53;;;;;;;;;;;;;;;21.78;43.98;101010.28;7319260;19;19922;-59
2023/06/12 02:20:18;;;;;;;;;;;;;;;21.77;44.22;101004.09;7313586;19;19922;-58
2023/06/12 02:22:44;;;;;;;;;;;;;;;21.56;44.40;100978.06;7314316;19;20287;-59
2023/06/12 02:25:09;;;;;;;;;;;;;;;21.74;44.51;101012.28;7309436;19;21070;-59
2023/06/12 02:27:34;;;;;;;;;;;;;;;21.73;44.36;101020.34;7320493;19;19957;-58
2023/06/12 02:30:00;;;;;;;;;;;;;;;21.71;44.63;101014.28;7318012;19;20439;-59
2023/06/12 02:32:25;;;;;;;;;;;;;;;21.69;44.58;101018.84;7315049;19;19976;-59
2023/06/12 02:34:50;;;;;;;;;;;;;;;21.67;44.53;101012.78;7317951;19;19919;-59
2023/06/12 02:37:16;;;;;;;;;;;;;;;21.65;44.24;101009.38;7307754;19;19918;-59
2023/06/12 02:39:41;;;;;;;;;;;;;;;21.62;44.65;100998.94;7304594;19;19990;-59
2023/06/12 02:42:07;;;;;;;;;;;;;;;21.59;44.45;100997.31;7319785;19;19978;-58
2023/06/12 02:44:32;;;;;;;;;;;;;;;21.55;44.72;101002.94;7318159;19;20029;-59
2023/06/12 02:46:58;;;;;;;;;;;;;;;21.50;44.37;100996.13;7322115;19;20413;-59
2023/06/12 02:49:28;;;;;;;;;;;;;;;21.47;44.71;101000.75;7316982;19;19915;-59
2023/06/12 02:51:53;;;;;;;;;;;;;;;21.43;44.49;100996.59;7318913;19;19947;-59
2023/06/12 02:54:20;;;;;;;;;;;;;;;21.40;44.94;100999.44;7317561;19;19923;-59
2023/06/12 02:56:46;;;;;;;;;;;;;;;21.37;45.02;100989.00;7293723;19;19927;-59
2023/06/12 02:59:15;;;;;;;;;;;;;;;21.33;44.56;100988.34;7318537;19;19926;-58
2023/06/12 03:01:43;;;;;;;;;;;;;;;21.31;44.54;100984.94;7313876;19;19918;-59
2023/06/12 03:04:09;;;;;;;;;;;;;;;21.28;44.55;100984.22;7312506;19;21011;-59
2023/06/12 03:06:34;;;;;;;;;;;;;;;21.23;44.40;100972.09;7319876;19;20364;-59
2023/06/12 03:09:03;;;;;;;;;;;;;;;21.21;44.17;100973.16;7319149;19;19947;-59
2023/06/12 03:11:29;;;;;;;;;;;;;;;20.99;44.36;100942.63;7318472;19;19922;-59
2023/06/12 03:13:54;;;;;;;;;;;;;;;21.15;44.49;100976.19;7318522;19;19918;-59
2023/06/12 03:16:20;;;;;;;;;;;;;;;21.11;44.54;100970.22;7315316;19;19954;-58
2023/06/12 03:18:46;;;;;;;;;;;;;;;21.10;44.54;100981.78;7319604;19;19918;-58
2023/06/12 03:21:11;;;;;;;;;;;;;;;21.08;44.79;100983.69;7316545;19;19918;-59
2023/06/12 03:23:36;;;;;;;;;;;;;;;21.07;45.12;100987.28;7315556;19;19914;-59
2023/06/12 03:26:01;;;;;;;;;;;;;;;21.05;45.10;100978.56;7314331;19;19914;-59
2023/06/12 03:28:27;;;;;;;;;;;;;;;21.06;45.31;100990.03;7315016;19;19926;-59
2023/06/12 03:30:52;;;;;;;;;;;;;;;21.05;44.84;100986.53;7314248;19;19925;-59
2023/06/12 03:33:17;;;;;;;;;;;;;;;21.06;45.29;100979.41;7317208;19;19927;-58
2023/06/12 03:35:42;;;;;;;;;;;;;;;20.72;45.09;100936.34;7317795;19;21868;-60
2023/06/12 03:38:08;;;;;;;;;;;;;;;21.04;45.05;100986.63;7316173;19;19966;-59
2023/06/12 03:40:33;;;;;;;;;;;;;;;21.04;45.42;100986.63;7313750;19;21780;-58
2023/06/12 03:42:58;;;;;;;;;;;;;;;21.03;44.93;100984.91;7319079;19;19935;-58
2023/06/12 03:45:23;;;;;;;;;;;;;;;21.02;44.84;100986.72;7311887;19;19923;-59
2023/06/12 03:47:49;;;;;;;;;;;;;;;21.02;45.08;100991.16;7319490;19;19919;-58
2023/06/12 03:50:14;;;;;;;;;;;;;;;21.01;44.51;100986.81;7315953;19;19918;-59
2023/06/12 03:52:40;;;;;;;;;;;;;;;20.98;44.70;100988.72;7320570;19;20411;-59
2023/06/12 03:55:05;;;;;;;;;;;;;;;20.96;44.58;100985.28;7314705;19;20474;-59
2023/06/12 03:57:31;;;;;;;;;;;;;;;20.93;44.42;100985.50;7324238;19;19918;-59
2023/06/12 03:59:56;;;;;;;;;;;;;;;20.91;44.81;100987.38;7323798;19;20231;-59
2023/06/12 04:02:21;;;;;;;;;;;;;;;20.88;44.56;100990.25;7323433;19;19940;-59
2023/06/12 04:04:46;;;;;;;;;;;;;;;20.86;44.60;100989.47;7316546;19;19915;-59
2023/06/12 04:07:14;;;;;;;;;;;;;;;20.78;44.85;100981.09;7324960;19;19919;-59
2023/06/12 04:09:40;;;;;;;;;;;;;;;20.82;45.24;101003.84;7325551;19;19925;-58
2023/06/12 04:12:06;;;;;;;;;;;;;;;20.80;45.04;100994.31;7325928;19;20932;-59
2023/06/12 04:14:31;;;;;;;;;;;;;;;20.79;44.52;100997.91;7320301;19;20971;-59
2023/06/12 04:16:57;;;;;;;;;;;;;;;20.76;44.28;100998.06;7325862;19;20392;-59
2023/06/12 04:19:22;;;;;;;;;;;;;;;20.60;44.34;100974.28;7318591;19;19922;-58
2023/06/12 04:21:49;;;;;;;;;;;;;;;20.72;45.26;101000.06;7322594;19;19922;-59
2023/06/12 04:24:15;;;;;;;;;;;;;;;20.69;45.41;101014.38;7318632;19;20266;-59
2023/06/12 04:26:43;;;;;;;;;;;;;;;20.68;45.61;101006.47;7324422;19;20465;-60
2023/06/12 04:29:08;;;;;;;;;;;;;;;20.66;45.57;101016.34;7319838;19;19923;-59
2023/06/12 04:31:34;;;;;;;;;;;;;;;20.65;45.78;101022.59;7323910;19;20307;-58
2023/06/12 04:34:01;;;;;;;;;;;;;;;20.63;46.08;101035.09;7324788;19;20721;-59
2023/06/12 04:36:27;;;;;;;;;;;;;;;20.64;45.92;101036.84;7322563;19;21139;-59
2023/06/12 04:38:52;;;;;;;;;;;;;;;20.64;45.97;101037.69;7322078;19;19989;-59
2023/06/12 04:41:19;;;;;;;;;;;;;;;20.65;46.20;101027.91;7320919;19;19919;-59
2023/06/12 04:43:44;;;;;;;;;;;;;;;20.66;46.69;101035.78;7317053;19;19970;-59
2023/06/12 04:46:13;;;;;;;;;;;;;;;20.68;46.22;101043.63;7325132;19;19927;-59
2023/06/12 04:48:41;;;;;;;;;;;;;;;20.67;46.72;101041.94;7319186;19;19926;-59
2023/06/12 04:51:08;;;;;;;;;;;;;;;20.69;46.35;101034.75;7322982;19;19929;-59
2023/06/12 04:53:34;;;;;;;;;;;;;;;20.71;46.77;101035.50;7317619;19;19907;-59
2023/06/12 04:56:00;;;;;;;;;;;;;;;20.72;46.67;101029.25;7322320;19;20704;-59
2023/06/12 04:58:26;;;;;;;;;;;;;;;20.73;46.83;101037.13;7322222;19;19934;-59
2023/06/12 05:00:55;;;;;;;;;;;;;;;20.75;46.76;101026.44;7323869;19;19915;-59
2023/06/12 05:03:20;;;;;;;;;;;;;;;20.77;46.94;101031.63;7318881;19;19940;-58
2023/06/12 05:05:46;;;;;;;;;;;;;;;20.77;46.55;101027.16;7322602;19;20360;-59
2023/06/12 05:08:12;;;;;;;;;;;;;;;20.79;46.73;101027.94;7318138;19;19925;-59
2023/06/12 05:10:37;;;;;;;;;;;;;;;20.79;46.95;101025.31;7320402;19;19921;-59
2023/06/12 05:13:02;;;;;;;;;;;;;;;20.81;46.75;101023.41;7320275;19;20005;-58
2023/06/12 05:15:28;;;;;;;;;;;;;;;20.83;46.73;101034.75;7316540;19;19922;-59
2023/06/12 05:17:53;;;;;;;;;;;;;;;20.84;46.82;101039.16;7324909;19;19931;-59
2023/06/12 05:20:19;;;;;;;;;;;;;;;20.84;47.13;101033.84;7324219;19;19918;-59
2023/06/12 05:22:45;;;;;;;;;;;;;;;20.85;47.10;101040.84;7321243;19;19910;-59
2023/06/12 05:25:10;;;;;;;;;;;;;;;20.87;46.79;101038.09;7322320;19;20251;-59
2023/06/12 05:27:35;;;;;;;;;;;;;;;20.88;46.81;101043.34;7322233;19;19918;-59
2023/06/12 05:30:01;;;;;;;;;;;;;;;20.88;46.76;101043.34;7325345;19;19926;-59
2023/06/12 05:32:26;;;;;;;;;;;;;;;20.90;46.86;101037.91;7322219;19;20350;-58
2023/06/12 05:34:51;;;;;;;;;;;;;;;20.92;46.98;101039.53;7320858;19;19918;-60
2023/06/12 05:37:16;;;;;;;;;;;;;;;20.94;46.91;101039.44;7321918;19;19917;-58
2023/06/12 05:39:42;;;;;;;;;;;;;;;20.96;47.35;101042.84;7322895;19;19926;-59
2023/06/12 05:42:07;;;;;;;;;;;;;;;20.98;47.00;101040.94;7323020;19;20603;-60
2023/06/12 05:44:32;;;;;;;;;;;;;;;20.99;47.10;101043.53;7318002;19;19949;-59
2023/06/12 05:46:58;;;;;;;;;;;;;;;21.02;47.56;101052.25;7320839;19;20570;-59
2023/06/12 05:49:23;;;;;;;;;;;;;;;21.03;47.60;101041.53;7323444;19;19931;-59
2023/06/12 05:51:48;;;;;;;;;;;;;;;21.06;47.45;101043.16;7323348;19;19939;-59
2023/06/12 05:54:13;;;;;;;;;;;;;;;21.07;47.32;101039.53;7319986;19;19922;-58
2023/06/12 05:56:39;;;;;;;;;;;;;;;21.10;47.21;101050.00;7317227;19;20643;-59
2023/06/12 05:59:04;;;;;;;;;;;;;;;21.13;47.38;101041.81;7317733;19;19923;-58
2023/06/12 06:01:31;;;;;;;;;;;;;;;21.15;47.33;101037.28;7322809;19;19919;-59
2023/06/12 06:03:57;;;;;;;;;;;;;;;21.17;47.78;101046.00;7321707;19;19954;-59
2023/06/12 06:06:22;;;;;;;;;;;;;;;21.18;47.55;101045.91;7318654;19;19922;-60
2023/06/12 06:08:48;;;;;;;;;;;;;;;21.21;47.43;101047.53;7322191;19;19915;-59
2023/06/12 06:11:13;;;;;;;;;;;;;;;21.23;47.29;101050.94;7320723;19;20335;-59
2023/06/12 06:13:41;;;;;;;;;;;;;;;21.24;47.31;101055.31;7320911;19;19907;-59
2023/06/12 06:16:06;;;;;;;;;;;;;;;21.25;47.86;101060.53;7321875;19;19943;-59
2023/06/12 06:18:31;;;;;;;;;;;;;;;21.26;47.35;101056.06;7313560;19;19914;-59
2023/06/12 06:20:57;;;;;;;;;;;;;;;21.27;47.83;101063.06;7322590;19;20333;-58
2023/06/12 06:23:22;;;;;;;;;;;;;;;21.27;47.69;101068.38;7318575;19;20315;-59
2023/06/12 06:25:47;;;;;;;;;;;;;;;21.28;47.65;101070.09;7317328;19;20668;-59
2023/06/12 06:28:13;;;;;;;;;;;;;;;21.28;47.16;101072.75;7322522;19;19919;-59
2023/06/12 06:30:38;;;;;;;;;;;;;;;20.94;47.28;101021.72;7319108;19;19918;-59
2023/06/12 06:33:03;;;;;;;;;;;;;;;21.29;47.34;101070.94;7320943;19;19926;-60
2023/06/12 06:35:29;;;;;;;;;;;;;;;21.28;47.82;101079.88;7314665;19;19956;-60
2023/06/12 06:37:54;;;;;;;;;;;;;;;21.28;47.66;101069.25;7319428;19;19926;-59
2023/06/12 06:40:19;;;;;;;;;;;;;;;21.29;48.02;101077.13;7321350;19;19986;-59
2023/06/12 06:42:45;;;;;;;;;;;;;;;21.29;47.91;101082.44;7318904;19;19915;-60
2023/06/12 06:45:10;;;;;;;;;;;;;;;21.30;47.94;101083.28;7314042;19;19922;-59
2023/06/12 06:47:35;;;;;;;;;;;;;;;21.31;47.80;101087.69;7319028;19;19919;-59
2023/06/12 06:50:01;;;;;;;;;;;;;;;21.32;48.08;101084.94;7319662;19;21680;-59
2023/06/12 06:52:26;;;;;;;;;;;;;;;21.35;47.63;101087.41;7306763;19;19919;-59
2023/06/12 06:54:51;;;;;;;;;;;;;;;21.36;47.89;101086.44;7317570;19;19914;-59
2023/06/12 06:57:17;;;;;;;;;;;;;;;21.38;47.88;101092.50;7312417;19;19930;-59
2023/06/12 06:59:42;;;;;;;;;;;;;;;21.39;48.12;101088.94;7314861;19;19956;-59
2023/06/12 07:02:07;;;;;;;;;;;;;;;21.42;47.85;101087.88;7323408;19;20731;-59
2023/06/12 07:04:33;;;;;;;;;;;;;;;21.43;48.06;101085.13;7328182;19;20512;-59
2023/06/12 07:06:58;;;;;;;;;;;;;;;21.45;47.87;101085.91;7328602;19;19919;-58
2023/06/12 07:09:24;;;;;;;;;;;;;;;21.47;48.01;101091.94;7328118;19;19922;-58
2023/06/12 07:11:50;;;;;;;;;;;;;;;21.47;48.11;101086.63;7329703;19;19935;-59
2023/06/12 07:14:15;;;;;;;;;;;;;;;21.48;47.90;101088.34;7327408;19;19923;-59
2023/06/12 07:16:41;;;;;;;;;;;;;;;21.50;48.01;101090.94;7325826;19;19994;-58
2023/06/12 07:19:06;;;;;;;;;;;;;;;21.52;48.08;101082.84;7327024;19;19915;-59
2023/06/12 07:21:31;;;;;;;;;;;;;;;21.54;48.00;101087.09;7330491;19;19935;-59
2023/06/12 07:23:58;;;;;;;;;;;;;;;21.56;47.99;101090.53;7323366;19;19922;-59
2023/06/12 07:26:23;;;;;;;;;;;;;;;21.60;48.23;101092.06;7330366;19;19919;-59
2023/06/12 07:28:48;;;;;;;;;;;;;;;21.63;48.17;101096.31;7325447;19;19982;-59
2023/06/12 07:31:13;;;;;;;;;;;;;;;21.66;48.37;101101.44;7328039;19;19915;-59
2023/06/12 07:33:39;;;;;;;;;;;;;;;21.35;48.21;101044.91;7336020;19;19918;-59
2023/06/12 07:36:04;;;;;;;;;;;;;;;21.71;48.02;101102.00;7334584;19;19927;-58
2023/06/12 07:38:30;;;;;;;;;;;;;;;21.73;48.33;101102.75;7333430;19;20406;-58
2023/06/12 07:40:55;;;;;;;;;;;;;;;21.75;48.34;101106.19;7334157;19;19936;-59
2023/06/12 07:43:20;;;;;;;;;;;;;;;21.77;48.51;101113.09;7332604;19;19931;-58
2023/06/12 07:45:45;;;;;;;;;;;;;;;21.80;48.55;101114.72;7335570;19;20438;-59
2023/06/12 07:48:11;;;;;;;;;;;;;;;21.81;48.38;101119.09;7334510;19;19950;-59
2023/06/12 07:50:39;;;;;;;;;;;;;;;21.85;48.49;101123.28;7325112;19;19914;-59
2023/06/12 07:53:04;;;;;;;;;;;;;;;21.87;48.13;101121.34;7317347;19;19934;-59
2023/06/12 07:55:31;;;;;;;;;;;;;;;21.88;48.38;101123.06;7330464;19;19918;-58
2023/06/12 07:57:57;;;;;;;;;;;;;;;21.49;48.06;101052.88;7333234;19;19926;-58
2023/06/12 08:00:24;;;;;;;;;;;;;;;21.93;48.24;101125.44;7329649;19;19923;-58
2023/06/12 08:02:57;;;;;;;;;;;;;;;21.95;48.32;101124.41;7332313;19;20312;-58
2023/06/12 08:05:23;;;;;;;;;;;;;;;21.98;48.20;101129.50;7334325;19;20486;-58
2023/06/12 08:07:48;;;;;;;;;;;;;;;22.00;48.36;101124.09;7330667;19;19914;-59
2023/06/12 08:10:13;;;;;;;;;;;;;;;22.01;48.45;101126.66;7330366;19;20366;-59
2023/06/12 08:12:38;;;;;;;;;;;;;;;22.03;48.14;101121.22;7332642;19;19926;-59
2023/06/12 08:15:04;;;;;;;;;;;;;;;22.06;48.05;101126.38;7332082;19;19951;-59
2023/06/12 08:17:29;;;;;;;;;;;;;;;22.08;48.50;101135.09;7335417;19;20736;-59
2023/06/12 08:19:55;;;;;;;;;;;;;;;22.09;47.99;101130.63;7328414;19;19925;-59
2023/06/12 08:22:20;;;;;;;;;;;;;;;22.12;48.06;101130.47;7333996;19;19915;-59
2023/06/12 08:24:46;;;;;;;;;;;;;;;22.14;48.49;101133.88;7332455;19;19978;-59
2023/06/12 08:27:11;;;;;;;;;;;;;;;22.15;48.04;101128.47;7332601;19;19915;-59
2023/06/12 08:29:37;;;;;;;;;;;;;;;22.16;48.16;101127.53;7329708;19;19930;-58
2023/06/12 08:32:02;;;;;;;;;;;;;;;22.18;48.12;101124.75;7330204;19;19911;-59
2023/06/12 08:34:28;;;;;;;;;;;;;;;22.20;48.39;101122.84;7330586;19;20480;-59
2023/06/12 08:36:53;;;;;;;;;;;;;;;22.21;48.33;101125.41;7335284;19;19918;-59
2023/06/12 08:39:19;;;;;;;;;;;;;;;22.24;48.28;101125.19;7331031;19;19935;-58
2023/06/12 08:41:49;;;;;;;;;;;;;;;22.27;48.53;101126.81;7323713;19;19919;-59
2023/06/12 08:44:15;;;;;;;;;;;;;;;22.29;48.18;101132.88;7331805;19;19923;-59
2023/06/12 08:46:41;;;;;;;;;;;;;;;22.31;48.68;101125.69;7331872;19;20242;-59
2023/06/12 08:49:06;;;;;;;;;;;;;;;22.33;48.35;101128.22;7333852;19;19918;-59
2023/06/12 08:51:32;;;;;;;;;;;;;;;22.35;48.23;101131.63;7329841;19;20712;-58
2023/06/12 08:53:59;;;;;;;;;;;;;;;22.37;48.10;101130.59;7329572;19;19925;-59
2023/06/12 08:56:25;;;;;;;;;;;;;;;22.39;48.61;101131.34;7325633;19;19927;-58
2023/06/12 08:58:50;;;;;;;;;;;;;;;22.09;48.60;101080.09;7334433;19;19922;-59
2023/06/12 09:01:16;;;;;;;;;;;;;;;22.42;48.68;101138.28;7330896;19;19939;-59
2023/06/12 09:03:43;;;;;;;;;;;;;;;22.12;48.18;101079.94;7331759;19;19922;-58
2023/06/12 09:06:09;;;;;;;;;;;;;;;22.44;48.16;101131.88;7326877;19;19939;-57
2023/06/12 09:08:35;;;;;;;;;;;;;;;22.47;48.57;101142.34;7333067;19;20010;-58
2023/06/12 09:11:01;;;;;;;;;;;;;;;22.47;48.69;101131.69;7315064;19;19940;-58
2023/06/12 09:13:38;;;;;;;;;;;;;;;22.50;48.24;101131.47;7332419;19;19919;-59
2023/06/12 09:16:09;;;;;;;;;;;;;;;22.54;48.52;101134.78;7329162;19;19922;-59
2023/06/12 09:18:46;;;;;;;;;;;;;;;22.57;48.41;101136.41;7329311;19;19911;-59
2023/06/12 09:21:12;;;;;;;;;;;;;;;22.59;48.54;101137.16;7332900;19;19937;-59
2023/06/12 09:23:40;;;;;;;;;;;;;;;22.62;48.57;101134.31;7328525;19;20534;-59
2023/06/12 09:26:10;;;;;;;;;;;;;;;22.65;48.18;101139.41;7329100;19;19926;-58
2023/06/12 09:28:36;;;;;;;;;;;;;;;22.68;48.59;101133.91;7329155;19;20954;-59
2023/06/12 09:31:04;;;;;;;;;;;;;;;22.69;48.47;101136.44;7332115;19;19923;-59
2023/06/12 09:33:30;;;;;;;;;;;;;;;22.72;48.17;101135.41;7331509;19;19926;-59
2023/06/12 09:35:55;;;;;;;;;;;;;;;22.75;48.66;101140.50;7326059;19;20177;-59
2023/06/12 09:38:30;;;;;;;;;;;;;;;22.77;48.66;101138.59;7325477;19;20624;-59
2023/06/12 09:40:56;;;;;;;;;;;;;;;22.81;48.14;101140.13;7330440;19;20666;-59
2023/06/12 09:43:23;;;;;;;;;;;;;;;22.79;48.55;101131.34;7326440;19;19937;-58
2023/06/12 09:45:49;;;;;;;;;;;;;;;22.89;48.37;101142.28;7330797;19;20558;-59
2023/06/12 09:48:14;;;;;;;;;;;;;;;22.91;48.50;101143.91;7324814;19;19933;-58
2023/06/12 09:50:40;;;;;;;;;;;;;;;22.93;48.31;101139.31;7332341;19;19951;-58
2023/06/12 09:53:05;;;;;;;;;;;;;;;22.94;48.58;101141.00;7329574;19;19946;-59
2023/06/12 09:55:31;;;;;;;;;;;;;;;22.98;48.35;101137.19;7328474;19;21099;-59
2023/06/12 09:57:58;;;;;;;;;;;;;;;23.01;48.69;101137.00;7328101;19;19926;-58
2023/06/12 10:00:24;;;;;;;;;;;;;;;23.05;48.53;101138.47;7330933;19;19927;-58
2023/06/12 10:03:00;;;;;;;;;;;;;;;23.08;47.99;101140.09;7328375;19;19934;-59
2023/06/12 10:05:46;;;;;;;;;;;;;;;23.12;48.47;101125.59;7331375;19;19919;-59
2023/06/12 10:08:11;;;;;;;;;;;;;;;23.17;48.31;101130.63;7327234;19;20039;-59
2023/06/12 10:10:36;;;;;;;;;;;;;;;23.22;48.61;101125.81;7331108;19;19926;-59
2023/06/12 10:13:02;;;;;;;;;;;;;;;23.28;48.58;101128.06;7310483;19;19919;-59
2023/06/12 10:15:28;;;;;;;;;;;;;;;23.36;48.66;101128.38;7328559;19;21583;-59
2023/06/12 10:17:53;;;;;;;;;;;;;;;23.46;48.63;101116.09;7324668;19;19914;-59
2023/06/12 10:20:19;;;;;;;;;;;;;;;23.00;48.45;101023.41;7330373;19;19919;-59
2023/06/12 10:22:46;;;;;;;;;;;;;;;23.71;48.54;101114.41;7329833;19;19915;-59
2023/06/12 10:25:11;;;;;;;;;;;;;;;23.85;48.70;101116.09;7329930;19;19911;-59
2023/06/12 10:27:37;;;;;;;;;;;;;;;24.00;48.01;101121.19;7328068;19;19952;-59
2023/06/12 10:30:04;;;;;;;;;;;;;;;24.15;48.51;101118.38;7331473;19;20699;-59
2023/06/12 10:32:31;;;;;;;;;;;;;;;24.31;48.34;101124.28;7322339;19;19960;-59
2023/06/12 10:34:57;;;;;;;;;;;;;;;24.46;48.52;101139.19;7330368;19;19919;-59
2023/06/12 10:37:23;;;;;;;;;;;;;;;24.63;48.10;101134.41;7329794;19;19925;-59
2023/06/12 10:39:49;;;;;;;;;;;;;;;24.78;48.39;101128.75;7328948;19;19922;-59
2023/06/12 10:42:14;;;;;;;;;;;;;;;24.95;48.01;101129.31;7327588;19;19949;-59
2023/06/12 10:44:41;;;;;;;;;;;;;;;25.12;48.14;101136.06;7324993;19;19937;-59
2023/06/12 10:47:18;;;;;;;;;;;;;;;25.27;47.82;101129.53;7327747;19;19915;-59
2023/06/12 10:49:56;;;;;;;;;;;;;;;25.45;47.28;101133.47;7330323;19;20462;-59
2023/06/12 10:52:22;;;;;;;;;;;;;;;25.63;47.44;101132.00;7321973;19;20244;-59
2023/06/12 10:54:48;;;;;;;;;;;;;;;25.77;47.07;101130.94;7330604;19;20674;-59
2023/06/12 10:57:13;;;;;;;;;;;;;;;25.90;47.38;101128.13;7324896;19;19935;-59
2023/06/12 10:59:39;;;;;;;;;;;;;;;25.73;47.14;101083.13;7329483;19;19967;-59
2023/06/12 11:02:04;;;;;;;;;;;;;;;26.11;46.79;101131.75;7326397;19;20647;-59
2023/06/12 11:04:37;;;;;;;;;;;;;;;26.21;46.87;101131.00;7306566;19;19975;-59
2023/06/12 11:07:02;;;;;;;;;;;;;;;26.29;46.54;101129.38;7327701;19;20463;-59
2023/06/12 11:09:32;;;;;;;;;;;;;;;26.35;46.31;101128.03;7323842;19;19939;-59
2023/06/12 11:12:00;;;;;;;;;;;;;;;26.38;46.03;101128.63;7325016;19;21643;-59
2023/06/12 11:14:26;;;;;;;;;;;;;;;26.40;45.95;101126.66;7318606;19;19915;-59
2023/06/12 11:16:56;;;;;;;;;;;;;;;26.42;45.97;101129.28;7322487;19;21082;-59
2023/06/12 11:19:24;;;;;;;;;;;;;;;26.40;45.87;101128.50;7318497;19;19911;-59
2023/06/12 11:21:50;;;;;;;;;;;;;;;26.38;45.50;101127.78;7317842;19;20785;-59
2023/06/12 11:24:17;;;;;;;;;;;;;;;26.34;45.83;101129.00;7317818;19;19928;-59
2023/06/12 11:26:42;;;;;;;;;;;;;;;26.31;45.95;101137.31;7312923;19;19907;-59
2023/06/12 11:29:18;;;;;;;;;;;;;;;26.28;45.81;101126.84;7320580;19;20471;-59
2023/06/12 11:31:58;;;;;;;;;;;;;;;26.24;45.63;101131.59;7315416;19;20255;-59
2023/06/12 11:34:23;;;;;;;;;;;;;;;26.19;45.98;101133.78;7317376;19;19922;-59
2023/06/12 11:36:49;;;;;;;;;;;;;;;26.14;45.60;101134.16;7322404;19;19919;-59
2023/06/12 11:39:17;;;;;;;;;;;;;;;26.09;45.61;101147.06;7323304;19;19926;-59
2023/06/12 11:41:43;;;;;;;;;;;;;;;26.04;45.86;101138.56;7322427;19;19919;-59
2023/06/12 11:44:08;;;;;;;;;;;;;;;25.99;45.93;101138.09;7322550;19;21323;-58
2023/06/12 11:46:34;;;;;;;;;;;;;;;25.92;45.82;101136.88;7324699;19;19930;-59
2023/06/12 11:49:00;;;;;;;;;;;;;;;25.86;45.81;101146.25;7323294;19;19923;-59
2023/06/12 11:51:26;;;;;;;;;;;;;;;25.80;45.71;101138.72;7319445;19;19918;-59
2023/06/12 11:53:51;;;;;;;;;;;;;;;25.74;45.98;101141.84;7321013;19;19921;-59
2023/06/12 11:56:16;;;;;;;;;;;;;;;25.67;46.03;101148.66;7320337;19;19926;-58
2023/06/12 11:58:44;;;;;;;;;;;;;;;25.61;45.92;101139.31;7320496;19;19932;-59
2023/06/12 12:01:22;;;;;;;;;;;;;;;25.55;46.23;101145.13;7324257;19;19914;-59
2023/06/12 12:03:48;;;;;;;;;;;;;;;25.51;46.33;101149.03;7324305;19;19936;-59
2023/06/12 12:06:14;;;;;;;;;;;;;;;25.45;46.15;101144.16;7320687;19;21232;-59
2023/06/12 12:08:40;;;;;;;;;;;;;;;25.43;46.25;101145.22;7320585;19;20627;-59
2023/06/12 12:11:16;;;;;;;;;;;;;;;25.39;46.49;101147.28;7319530;19;20863;-59
2023/06/12 12:13:48;;;;;;;;;;;;;;;25.37;46.37;101146.56;7318565;19;20457;-59
2023/06/12 12:16:14;;;;;;;;;;;;;;;25.34;46.16;101152.13;7323889;19;19950;-59
2023/06/12 12:18:41;;;;;;;;;;;;;;;25.34;46.47;101146.78;7326103;19;20707;-59
2023/06/12 12:21:12;;;;;;;;;;;;;;;25.32;46.30;101149.59;7327802;19;19934;-59
2023/06/12 12:23:38;;;;;;;;;;;;;;;25.30;46.27;101156.03;7325342;19;19919;-59
2023/06/12 12:26:03;;;;;;;;;;;;;;;25.27;46.29;101148.25;7315184;19;20380;-59
2023/06/12 12:28:28;;;;;;;;;;;;;;;25.25;46.67;101147.53;7325184;19;19922;-59
2023/06/12 12:30:53;;;;;;;;;;;;;;;25.22;46.87;101142.41;7326882;19;19974;-59
2023/06/12 12:33:19;;;;;;;;;;;;;;;25.18;46.64;101140.94;7325006;19;20689;-59